Time;durP1;ratioP1;P1;durP2;ratioP2;P2;SDS_P1;SDS_P2;PMS_P1;PMS_P2;Temp;Humidity;BMP_temperature;BMP_pressure;BME280_temperature;BME280_humidity;BME280_pressure;Samples;Min_cycle;Max_cycle;Signal;HPM_P1;HPM_P2
2024/01/12 00:00:31;;;;;;;8.57;3.30;;;1.30;99.90;;;;;;6238955;23;20016;-83
2024/01/12 00:02:57;;;;;;;6.72;3.10;;;1.30;99.90;;;;;;6211885;23;20024;-82
2024/01/12 00:05:22;;;;;;;13.27;3.65;;;1.30;99.90;;;;;;6238254;23;20043;-82
2024/01/12 00:07:48;;;;;;;6.17;2.70;;;1.50;99.90;;;;;;6237582;23;20016;-83
2024/01/12 00:10:13;;;;;;;6.50;2.97;;;1.50;99.90;;;;;;6240304;23;20243;-82
2024/01/12 00:12:39;;;;;;;8.35;3.42;;;1.70;99.90;;;;;;6236898;23;20098;-83
2024/01/12 00:15:05;;;;;;;9.43;3.65;;;1.80;99.90;;;;;;6213454;23;20012;-83
2024/01/12 00:17:32;;;;;;;9.98;3.88;;;1.90;99.90;;;;;;6238670;23;20020;-82
2024/01/12 00:19:57;;;;;;;10.00;3.72;;;1.90;99.90;;;;;;6238181;23;20024;-82
2024/01/12 00:22:23;;;;;;;6.97;3.35;;;2.00;99.90;;;;;;6212772;23;20139;-82
2024/01/12 00:24:49;;;;;;;7.13;3.22;;;2.00;99.90;;;;;;6238658;23;20019;-82
2024/01/12 00:27:14;;;;;;;7.80;3.30;;;2.00;99.90;;;;;;6237948;23;20004;-83
2024/01/12 00:29:40;;;;;;;7.85;3.78;;;2.00;99.90;;;;;;6216118;23;20051;-82
2024/01/12 00:32:06;;;;;;;10.27;3.85;;;2.10;99.90;;;;;;6239141;23;20027;-83
2024/01/12 00:34:32;;;;;;;7.90;3.30;;;2.10;99.90;;;;;;6238209;23;20023;-82
2024/01/12 00:36:58;;;;;;;4.53;2.65;;;2.10;99.90;;;;;;6239089;23;20405;-83
2024/01/12 00:39:23;;;;;;;6.68;2.47;;;2.10;99.90;;;;;;6237460;23;20460;-82
2024/01/12 00:41:50;;;;;;;10.50;3.10;;;2.10;99.90;;;;;;6239024;23;20027;-83
2024/01/12 00:44:18;;;;;;;6.10;2.70;;;2.10;99.90;;;;;;6213825;23;20309;-82
2024/01/12 00:46:44;;;;;;;7.53;3.20;;;2.10;99.90;;;;;;6214921;23;20012;-82
2024/01/12 00:49:10;;;;;;;5.07;2.80;;;2.20;99.90;;;;;;6240508;23;20338;-82
2024/01/12 00:51:36;;;;;;;11.57;3.42;;;2.20;99.90;;;;;;6238495;23;20024;-82
2024/01/12 00:54:02;;;;;;;10.93;3.55;;;2.30;99.90;;;;;;6236571;23;20023;-81
2024/01/12 00:56:28;;;;;;;8.32;3.20;;;2.40;99.90;;;;;;6212577;23;20023;-81
2024/01/12 00:58:53;;;;;;;5.72;2.80;;;2.40;99.90;;;;;;6213263;23;20065;-82
2024/01/12 01:01:19;;;;;;;8.02;2.92;;;2.40;99.90;;;;;;6213640;23;20020;-82
2024/01/12 01:03:44;;;;;;;6.13;2.77;;;2.30;99.90;;;;;;6214311;23;20087;-82
2024/01/12 01:06:10;;;;;;;6.20;2.73;;;2.40;99.90;;;;;;6238950;23;20329;-82
2024/01/12 01:08:36;;;;;;;7.47;3.77;;;2.40;99.90;;;;;;6238684;23;20245;-82
2024/01/12 01:11:01;;;;;;;6.22;2.55;;;2.50;99.90;;;;;;6237412;23;20016;-83
2024/01/12 01:13:27;;;;;;;8.40;3.30;;;2.50;99.90;;;;;;6238850;23;20106;-81
2024/01/12 01:15:53;;;;;;;5.83;3.03;;;2.50;99.90;;;;;;6239847;23;20254;-82
2024/01/12 01:18:18;;;;;;;5.45;2.35;;;2.50;99.90;;;;;;6241591;23;20020;-82
2024/01/12 01:20:44;;;;;;;7.83;2.43;;;2.50;99.90;;;;;;6240882;23;20028;-82
2024/01/12 01:23:09;;;;;;;3.50;1.92;;;2.50;99.90;;;;;;6239277;23;20724;-81
2024/01/12 01:25:36;;;;;;;3.58;1.70;;;2.40;99.90;;;;;;6240534;23;20158;-82
2024/01/12 01:28:02;;;;;;;4.78;1.77;;;2.40;99.90;;;;;;6240506;23;20019;-82
2024/01/12 01:30:28;;;;;;;3.50;1.52;;;2.30;99.90;;;;;;6216194;23;20094;-82
2024/01/12 01:32:54;;;;;;;2.90;1.30;;;2.10;99.90;;;;;;6242096;23;20019;-82
2024/01/12 01:35:19;;;;;;;3.67;1.17;;;2.10;99.90;;;;;;6241580;23;20461;-82
2024/01/12 01:37:45;;;;;;;3.17;1.33;;;2.10;99.90;;;;;;6214808;23;20027;-83
2024/01/12 01:40:11;;;;;;;1.92;1.42;;;2.00;99.90;;;;;;6216424;23;20091;-83
2024/01/12 01:42:36;;;;;;;3.63;1.30;;;2.00;99.90;;;;;;6215564;23;20058;-82
2024/01/12 01:45:02;;;;;;;4.55;1.45;;;1.90;99.90;;;;;;6242649;23;20012;-83
2024/01/12 01:47:29;;;;;;;3.20;1.30;;;1.90;99.90;;;;;;6242249;23;20012;-83
2024/01/12 01:49:55;;;;;;;;;;;1.80;99.90;;;;;;6241426;22;20103;-82
2024/01/12 01:52:23;;;;;;;3.15;1.70;;;1.70;99.90;;;;;;6215609;23;19943;-83
2024/01/12 01:54:49;;;;;;;2.95;1.27;;;1.80;99.90;;;;;;6214945;23;20119;-83
2024/01/12 01:57:15;;;;;;;2.58;1.25;;;1.70;99.90;;;;;;6214062;23;20401;-83
2024/01/12 01:59:41;;;;;;;2.75;1.10;;;1.70;99.90;;;;;;6242144;23;20447;-82
2024/01/12 02:02:08;;;;;;;6.03;1.60;;;1.70;99.90;;;;;;6241375;23;20012;-83
2024/01/12 02:04:34;;;;;;;2.80;1.40;;;1.70;99.90;;;;;;6240554;23;20008;-83
2024/01/12 02:07:00;;;;;;;2.47;1.30;;;1.70;99.90;;;;;;6240297;23;20550;-83
2024/01/12 02:09:28;;;;;;;1.58;1.30;;;1.70;99.90;;;;;;6215152;23;20008;-83
2024/01/12 02:11:54;;;;;;;3.92;1.20;;;1.70;99.90;;;;;;6214303;23;20016;-83
2024/01/12 02:14:19;;;;;;;2.67;1.40;;;1.70;99.90;;;;;;6239621;23;20066;-81
2024/01/12 02:16:45;;;;;;;2.08;1.27;;;1.60;99.90;;;;;;6216316;23;20024;-82
2024/01/12 02:19:11;;;;;;;1.90;1.17;;;1.70;99.90;;;;;;6214876;23;20013;-81
2024/01/12 02:21:36;;;;;;;3.77;1.33;;;1.60;99.90;;;;;;6214039;23;20016;-83
2024/01/12 02:24:02;;;;;;;2.27;1.17;;;1.60;99.90;;;;;;6240843;23;20714;-83
2024/01/12 02:26:28;;;;;;;2.92;1.23;;;1.70;99.90;;;;;;6239471;23;20012;-82
2024/01/12 02:28:53;;;;;;;3.45;1.48;;;1.60;99.90;;;;;;6240431;23;20065;-82
2024/01/12 02:31:19;;;;;;;2.08;1.30;;;1.60;99.90;;;;;;6241195;23;20041;-82
2024/01/12 02:33:48;;;;;;;1.70;1.08;;;1.60;99.90;;;;;;6242913;23;20009;-82
2024/01/12 02:36:14;;;;;;;2.83;1.63;;;1.60;99.90;;;;;;6216536;23;20365;-82
2024/01/12 02:38:40;;;;;;;3.20;1.40;;;1.60;99.90;;;;;;6242123;23;20018;-82
2024/01/12 02:41:05;;;;;;;4.50;1.85;;;1.60;99.90;;;;;;6239595;23;20031;-82
2024/01/12 02:43:31;;;;;;;3.17;1.50;;;1.50;99.90;;;;;;6216139;23;20020;-82
2024/01/12 02:45:57;;;;;;;2.67;1.53;;;1.40;99.90;;;;;;6241329;23;20012;-83
2024/01/12 02:48:22;;;;;;;2.47;1.57;;;1.30;99.90;;;;;;6241189;23;20417;-82
2024/01/12 02:50:48;;;;;;;3.63;1.85;;;1.20;99.90;;;;;;6239331;23;20271;-82
2024/01/12 02:53:13;;;;;;;4.40;1.90;;;1.10;99.90;;;;;;6240086;23;20014;-82
2024/01/12 02:55:39;;;;;;;2.40;1.50;;;1.00;99.90;;;;;;6238545;23;20243;-82
2024/01/12 02:58:05;;;;;;;3.70;1.70;;;0.80;99.90;;;;;;6239524;23;20016;-82
2024/01/12 03:00:30;;;;;;;2.03;1.58;;;0.70;99.90;;;;;;6239292;23;21228;-82
2024/01/12 03:02:56;;;;;;;4.82;1.75;;;0.70;99.90;;;;;;6240108;23;20008;-82
2024/01/12 03:05:22;;;;;;;5.35;1.85;;;0.70;99.90;;;;;;6212843;23;20437;-82
2024/01/12 03:07:48;;;;;;;3.92;1.98;;;0.70;99.90;;;;;;6239211;23;20016;-82
2024/01/12 03:10:17;;;;;;;4.25;1.92;;;0.70;99.90;;;;;;6240033;23;20373;-83
2024/01/12 03:12:42;;;;;;;3.97;1.90;;;0.70;99.90;;;;;;6239068;23;20389;-84
2024/01/12 03:15:08;;;;;;;3.50;1.90;;;0.70;99.90;;;;;;6240149;23;20016;-84
2024/01/12 03:17:34;;;;;;;4.55;2.50;;;0.70;99.90;;;;;;6215028;23;20098;-83
2024/01/12 03:19:59;;;;;;;3.97;2.05;;;0.80;99.90;;;;;;6241804;23;20019;-83
2024/01/12 03:22:25;;;;;;;3.67;1.83;;;0.90;99.90;;;;;;6240597;23;20015;-82
2024/01/12 03:24:51;;;;;;;3.83;2.00;;;0.90;99.90;;;;;;6240356;23;20011;-83
2024/01/12 03:27:16;;;;;;;2.92;1.50;;;1.00;99.90;;;;;;6238603;23;20471;-82
2024/01/12 03:29:42;;;;;;;4.80;2.13;;;1.00;99.90;;;;;;6239110;23;20420;-83
2024/01/12 03:32:07;;;;;;;4.45;1.83;;;1.00;99.90;;;;;;6215342;23;20341;-83
2024/01/12 03:34:33;;;;;;;3.75;2.22;;;1.10;99.90;;;;;;6213908;23;20016;-82
2024/01/12 03:36:59;;;;;;;4.10;2.67;;;1.10;99.90;;;;;;6239354;23;20016;-83
2024/01/12 03:39:24;;;;;;;7.13;3.90;;;1.20;99.90;;;;;;6213474;23;20526;-81
2024/01/12 03:41:50;;;;;;;7.05;4.07;;;1.20;99.90;;;;;;6241755;23;20087;-82
2024/01/12 03:44:15;;;;;;;5.37;3.53;;;1.20;99.90;;;;;;6215183;23;20008;-83
2024/01/12 03:46:41;;;;;;;4.60;2.77;;;1.30;99.90;;;;;;6240860;23;20301;-82
2024/01/12 03:49:06;;;;;;;5.23;2.80;;;1.30;99.90;;;;;;6239150;23;20325;-83
2024/01/12 03:51:32;;;;;;;5.75;2.60;;;1.30;99.90;;;;;;6238859;23;20012;-82
2024/01/12 03:53:58;;;;;;;5.00;2.93;;;1.30;99.90;;;;;;6238967;23;20020;-82
2024/01/12 03:56:23;;;;;;;6.70;3.30;;;1.40;99.90;;;;;;6213594;23;20012;-82
2024/01/12 03:58:49;;;;;;;5.00;2.77;;;1.40;99.90;;;;;;6214785;23;20074;-83
2024/01/12 04:01:14;;;;;;;9.47;4.13;;;1.40;99.90;;;;;;6239499;23;20287;-82
2024/01/12 04:03:41;;;;;;;5.60;3.22;;;1.40;99.90;;;;;;6238936;23;20008;-83
2024/01/12 04:06:08;;;;;;;6.63;3.53;;;1.50;99.90;;;;;;6240798;23;20027;-82
2024/01/12 04:08:33;;;;;;;8.15;4.20;;;1.50;99.90;;;;;;6239592;23;20040;-82
2024/01/12 04:10:59;;;;;;;6.33;3.80;;;1.50;99.90;;;;;;6239745;23;20074;-82
2024/01/12 04:13:25;;;;;;;7.85;4.15;;;1.50;99.90;;;;;;6239234;23;20008;-83
2024/01/12 04:15:51;;;;;;;5.47;2.80;;;1.70;99.90;;;;;;6239390;23;20020;-82
2024/01/12 04:18:16;;;;;;;6.05;2.85;;;1.80;99.90;;;;;;6238513;23;20445;-83
2024/01/12 04:20:42;;;;;;;10.17;3.20;;;1.80;99.90;;;;;;6240669;23;20016;-83
2024/01/12 04:23:08;;;;;;;5.97;2.55;;;1.90;99.90;;;;;;6213538;23;20300;-83
2024/01/12 04:25:33;;;;;;;5.25;2.47;;;1.80;99.90;;;;;;6239140;23;20015;-83
2024/01/12 04:27:59;;;;;;;5.53;2.00;;;1.80;99.90;;;;;;6238428;23;20066;-84
2024/01/12 04:30:24;;;;;;;4.03;1.90;;;1.90;99.90;;;;;;6213377;23;20549;-83
2024/01/12 04:32:50;;;;;;;4.47;2.13;;;1.80;99.90;;;;;;6214969;23;20019;-83
2024/01/12 04:35:16;;;;;;;3.65;2.03;;;1.80;99.90;;;;;;6215187;23;20157;-83
2024/01/12 04:37:42;;;;;;;5.55;2.42;;;1.80;99.90;;;;;;6238886;23;20012;-83
2024/01/12 04:40:07;;;;;;;5.57;2.10;;;1.80;99.90;;;;;;6240062;23;20012;-83
2024/01/12 04:42:33;;;;;;;4.78;2.33;;;1.70;99.90;;;;;;6213736;23;20341;-82
2024/01/12 04:44:59;;;;;;;3.42;2.03;;;1.70;99.90;;;;;;6240235;23;20008;-82
2024/01/12 04:47:25;;;;;;;2.47;1.40;;;1.70;99.90;;;;;;6239131;23;20019;-82
2024/01/12 04:49:50;;;;;;;3.67;1.60;;;1.70;99.90;;;;;;6214598;23;20024;-82
2024/01/12 04:52:16;;;;;;;2.20;1.47;;;1.60;99.90;;;;;;6239875;23;20066;-82
2024/01/12 04:54:41;;;;;;;4.47;1.90;;;1.60;99.90;;;;;;6237890;23;20274;-82
2024/01/12 04:57:07;;;;;;;3.13;1.70;;;1.50;99.90;;;;;;6237550;23;20016;-82
2024/01/12 04:59:32;;;;;;;3.17;1.83;;;1.40;99.90;;;;;;6213247;23;20004;-83
2024/01/12 05:01:58;;;;;;;4.32;1.98;;;1.40;99.90;;;;;;6238208;23;20145;-83
2024/01/12 05:04:24;;;;;;;3.58;1.90;;;1.40;99.90;;;;;;6239005;23;20027;-83
2024/01/12 05:06:49;;;;;;;3.35;1.77;;;1.30;99.90;;;;;;6240393;23;20020;-83
2024/01/12 05:09:15;;;;;;;4.72;2.17;;;1.30;99.90;;;;;;6239852;23;20054;-83
2024/01/12 05:11:41;;;;;;;3.38;1.52;;;1.20;99.90;;;;;;6214435;23;20062;-82
2024/01/12 05:14:07;;;;;;;3.53;1.83;;;1.20;99.90;;;;;;6239222;23;20016;-83
2024/01/12 05:16:32;;;;;;;3.30;2.05;;;1.20;99.90;;;;;;6213568;23;20144;-83
2024/01/12 05:18:58;;;;;;;5.53;2.10;;;1.30;99.90;;;;;;6239933;23;20013;-83
2024/01/12 05:21:23;;;;;;;6.63;2.03;;;1.20;99.90;;;;;;6239340;23;20024;-83
2024/01/12 05:23:49;;;;;;;5.05;1.83;;;1.30;99.90;;;;;;6213558;23;20016;-82
2024/01/12 05:26:15;;;;;;;2.93;1.73;;;1.30;99.90;;;;;;6237765;23;20012;-82
2024/01/12 05:28:40;;;;;;;3.03;1.80;;;1.30;99.90;;;;;;6238210;23;20230;-82
2024/01/12 05:31:09;;;;;;;5.70;2.40;;;1.30;99.90;;;;;;6239015;23;20020;-83
2024/01/12 05:33:34;;;;;;;4.07;2.30;;;1.40;99.90;;;;;;6214196;23;20016;-82
2024/01/12 05:36:00;;;;;;;4.10;2.22;;;1.40;99.90;;;;;;6213489;23;20044;-83
2024/01/12 05:38:26;;;;;;;5.40;2.15;;;1.50;99.90;;;;;;6212897;23;20286;-83
2024/01/12 05:40:51;;;;;;;7.20;2.85;;;1.50;99.90;;;;;;6238644;23;20476;-83
2024/01/12 05:43:17;;;;;;;6.10;2.50;;;1.60;99.90;;;;;;6240377;23;20052;-83
2024/01/12 05:45:43;;;;;;;10.73;3.58;;;1.70;99.90;;;;;;6213106;23;20019;-82
2024/01/12 05:48:10;;;;;;;8.63;3.22;;;1.90;99.90;;;;;;6238498;23;20015;-80
2024/01/12 05:50:36;;;;;;;9.25;3.17;;;1.90;99.90;;;;;;6212841;23;20027;-77
2024/01/12 05:53:01;;;;;;;5.95;2.67;;;2.00;99.90;;;;;;6237911;23;20090;-80
2024/01/12 05:55:27;;;;;;;7.97;2.87;;;2.00;99.90;;;;;;6237260;23;20489;-80
2024/01/12 05:57:52;;;;;;;11.32;3.08;;;2.00;99.90;;;;;;6237518;23;20020;-80
2024/01/12 06:00:18;;;;;;;7.38;2.83;;;2.10;99.90;;;;;;6213167;23;20032;-80
2024/01/12 06:02:43;;;;;;;7.28;2.80;;;2.10;99.90;;;;;;6240303;23;20012;-80
2024/01/12 06:05:09;;;;;;;6.37;2.13;;;2.20;99.90;;;;;;6242019;23;20012;-81
2024/01/12 06:07:35;;;;;;;8.37;2.60;;;2.10;99.90;;;;;;6215686;23;20091;-81
2024/01/12 06:10:00;;;;;;;6.53;2.63;;;2.10;99.90;;;;;;6240802;23;20247;-81
2024/01/12 06:12:26;;;;;;;6.80;3.00;;;2.10;99.90;;;;;;6239301;23;20341;-81
2024/01/12 06:14:53;;;;;;;7.57;3.40;;;2.20;99.90;;;;;;6237794;23;20243;-81
2024/01/12 06:17:18;;;;;;;8.50;3.28;;;2.30;99.90;;;;;;6238564;23;20314;-81
2024/01/12 06:19:44;;;;;;;8.93;3.00;;;2.30;99.90;;;;;;6239722;23;20040;-81
2024/01/12 06:22:10;;;;;;;10.13;3.35;;;2.30;99.90;;;;;;6240842;23;20012;-82
2024/01/12 06:24:35;;;;;;;5.53;2.80;;;2.30;99.90;;;;;;6239826;23;20044;-81
2024/01/12 06:27:02;;;;;;;8.60;3.00;;;2.30;99.90;;;;;;6240397;23;20027;-82
2024/01/12 06:29:28;;;;;;;8.30;3.75;;;2.40;99.90;;;;;;6214767;23;20007;-83
2024/01/12 06:31:53;;;;;;;8.23;3.42;;;2.50;99.90;;;;;;6239209;23;20012;-82
2024/01/12 06:34:19;;;;;;;7.82;2.90;;;2.50;99.90;;;;;;6239872;23;20019;-82
2024/01/12 06:36:45;;;;;;;7.40;3.70;;;2.50;99.90;;;;;;6239908;23;20368;-81
2024/01/12 06:39:11;;;;;;;17.77;7.03;;;2.50;99.90;;;;;;6214410;23;20425;-81
2024/01/12 06:41:42;;;;;;;11.10;4.88;;;2.50;99.90;;;;;;6239355;23;20016;-82
2024/01/12 06:44:09;;;;;;;8.00;3.80;;;2.60;99.90;;;;;;6214161;23;20095;-83
2024/01/12 06:46:35;;;;;;;7.78;3.83;;;2.50;99.90;;;;;;6213482;23;20016;-83
2024/01/12 06:49:01;;;;;;;10.55;5.55;;;2.60;99.90;;;;;;6212766;23;20023;-82
2024/01/12 06:51:26;;;;;;;10.98;5.03;;;2.60;99.90;;;;;;6213737;23;20052;-81
2024/01/12 06:53:52;;;;;;;7.57;3.80;;;2.60;99.90;;;;;;6238280;23;20008;-81
2024/01/12 06:56:21;;;;;;;14.15;6.72;;;2.60;99.90;;;;;;6236484;23;20316;-82
2024/01/12 06:58:47;;;;;;;18.95;7.28;;;2.60;99.90;;;;;;6208830;23;20015;-81
2024/01/12 07:01:16;;;;;;;22.63;9.50;;;2.50;99.90;;;;;;6237166;23;20572;-81
2024/01/12 07:03:41;;;;;;;25.00;9.85;;;2.50;99.90;;;;;;6238173;23;20050;-82
2024/01/12 07:06:07;;;;;;;19.60;10.17;;;2.40;99.90;;;;;;6211941;23;20020;-82
2024/01/12 07:08:32;;;;;;;22.30;10.53;;;2.50;99.90;;;;;;6213461;23;20274;-82
2024/01/12 07:10:58;;;;;;;24.50;10.80;;;2.40;99.90;;;;;;6235839;23;20016;-82
2024/01/12 07:13:23;;;;;;;16.30;6.43;;;2.40;99.90;;;;;;6209387;23;20043;-82
2024/01/12 07:15:49;;;;;;;11.77;5.37;;;2.50;99.90;;;;;;6213183;23;20549;-81
2024/01/12 07:18:15;;;;;;;7.93;4.38;;;2.40;99.90;;;;;;6212914;23;20090;-81
2024/01/12 07:20:40;;;;;;;7.90;3.97;;;2.40;99.90;;;;;;6238998;23;20087;-82
2024/01/12 07:23:06;;;;;;;12.88;6.50;;;2.40;99.90;;;;;;6240601;23;20235;-82
2024/01/12 07:25:33;;;;;;;16.33;6.03;;;2.40;99.90;;;;;;6237453;23;20050;-82
2024/01/12 07:27:59;;;;;;;9.50;4.03;;;2.60;99.90;;;;;;6240152;23;20062;-82
2024/01/12 07:30:25;;;;;;;9.98;3.60;;;2.70;99.90;;;;;;6238902;23;20023;-82
2024/01/12 07:32:51;;;;;;;11.95;4.90;;;2.80;99.90;;;;;;6241466;23;20012;-81
2024/01/12 07:35:17;;;;;;;10.63;3.13;;;2.90;99.90;;;;;;6241269;23;20012;-82
2024/01/12 07:37:43;;;;;;;9.68;2.70;;;2.90;99.90;;;;;;6239665;23;20011;-82
2024/01/12 07:40:09;;;;;;;16.38;3.60;;;2.80;99.90;;;;;;6213171;23;20449;-80
2024/01/12 07:42:35;;;;;;;18.83;3.63;;;3.00;99.90;;;;;;6213491;23;20050;-81
2024/01/12 07:45:00;;;;;;;15.65;2.47;;;3.00;99.90;;;;;;6238613;23;20441;-81
2024/01/12 07:47:26;;;;;;;10.43;2.47;;;3.10;99.90;;;;;;6238406;23;20012;-80
2024/01/12 07:49:52;;;;;;;14.23;3.97;;;3.10;99.90;;;;;;6240110;23;20242;-83
2024/01/12 07:52:17;;;;;;;17.83;4.18;;;3.20;99.90;;;;;;6237937;23;20391;-80
2024/01/12 07:54:43;;;;;;;14.13;3.10;;;3.30;99.90;;;;;;6240042;22;20016;-80
2024/01/12 07:57:09;;;;;;;13.90;2.70;;;3.30;99.90;;;;;;6238432;23;20016;-81
2024/01/12 07:59:34;;;;;;;16.35;3.22;;;3.30;99.90;;;;;;6240658;23;20012;-80
2024/01/12 08:02:01;;;;;;;12.98;2.20;;;3.40;99.90;;;;;;6238807;23;20019;-80
2024/01/12 08:04:27;;;;;;;12.68;2.60;;;3.50;99.90;;;;;;6240327;23;20012;-81
2024/01/12 08:06:53;;;;;;;13.60;2.45;;;3.50;99.90;;;;;;6238380;23;20012;-81
2024/01/12 08:09:18;;;;;;;5.90;1.40;;;3.50;99.90;;;;;;6237974;23;20459;-80
2024/01/12 08:11:44;;;;;;;5.75;1.75;;;3.50;99.90;;;;;;6240262;23;20436;-80
2024/01/12 08:14:09;;;;;;;4.33;1.27;;;3.50;99.90;;;;;;6240304;23;20015;-80
2024/01/12 08:16:35;;;;;;;8.63;2.33;;;3.50;99.90;;;;;;6235489;23;20238;-80
2024/01/12 08:19:01;;;;;;;12.37;2.73;;;3.50;99.90;;;;;;6239487;23;20223;-80
2024/01/12 08:21:26;;;;;;;6.20;1.55;;;3.50;99.90;;;;;;6237404;23;20251;-81
2024/01/12 08:23:52;;;;;;;5.47;1.20;;;3.50;99.90;;;;;;6236980;23;20090;-80
2024/01/12 08:26:19;;;;;;;12.60;1.88;;;3.50;99.90;;;;;;6237203;23;20058;-80
2024/01/12 08:28:51;;;;;;;7.35;1.60;;;3.60;99.90;;;;;;6212993;23;20020;-80
2024/01/12 08:31:17;;;;;;;8.90;1.85;;;3.60;99.90;;;;;;6238372;23;20035;-80
2024/01/12 08:33:48;;;;;;;11.02;1.92;;;3.60;99.90;;;;;;6238690;23;20012;-81
2024/01/12 08:36:13;;;;;;;15.52;2.00;;;3.60;99.90;;;;;;6239737;23;20020;-81
2024/01/12 08:38:40;;;;;;;17.00;2.25;;;3.70;99.90;;;;;;6237244;23;20016;-81
2024/01/12 08:41:06;;;;;;;11.13;2.00;;;3.80;99.90;;;;;;6211657;23;20039;-80
2024/01/12 08:43:31;;;;;;;11.13;2.00;;;3.90;99.90;;;;;;6239685;23;20373;-79
2024/01/12 08:45:57;;;;;;;8.97;1.67;;;3.90;99.90;;;;;;6237696;23;20243;-80
2024/01/12 08:48:22;;;;;;;4.93;1.40;;;3.90;99.90;;;;;;6212945;23;20612;-80
2024/01/12 08:50:48;;;;;;;4.53;1.13;;;3.90;99.90;;;;;;6238265;23;20024;-80
2024/01/12 08:53:13;;;;;;;7.85;1.58;;;3.80;99.90;;;;;;6207439;23;20639;-81
2024/01/12 08:55:39;;;;;;;7.83;2.17;;;3.80;99.90;;;;;;6232726;23;20008;-81
2024/01/12 08:58:05;;;;;;;10.23;2.28;;;3.80;99.90;;;;;;6236146;23;20448;-81
2024/01/12 09:00:30;;;;;;;9.73;2.42;;;3.80;99.90;;;;;;6210833;23;20020;-81
2024/01/12 09:02:56;;;;;;;10.10;2.05;;;3.80;99.90;;;;;;6236505;23;20015;-80
2024/01/12 09:05:22;;;;;;;10.10;2.07;;;3.80;99.90;;;;;;6236744;23;20020;-80
2024/01/12 09:07:47;;;;;;;14.30;2.55;;;3.90;99.90;;;;;;6236308;23;20707;-80
2024/01/12 09:10:13;;;;;;;11.20;2.22;;;4.00;99.90;;;;;;6237061;23;20019;-80
2024/01/12 09:12:39;;;;;;;11.68;2.25;;;4.00;99.90;;;;;;6232056;23;20023;-81
2024/01/12 09:15:07;;;;;;;27.70;9.73;;;4.00;99.90;;;;;;6237506;23;20395;-81
2024/01/12 09:17:34;;;;;;;24.77;9.20;;;4.00;99.90;;;;;;6236627;23;20333;-82
2024/01/12 09:20:00;;;;;;;20.08;7.95;;;4.00;99.90;;;;;;6237544;23;20016;-81
2024/01/12 09:22:25;;;;;;;11.85;3.38;;;4.10;99.90;;;;;;6236705;23;20012;-81
2024/01/12 09:24:52;;;;;;;12.85;2.92;;;4.20;99.90;;;;;;6237773;23;20341;-82
2024/01/12 09:27:17;;;;;;;14.23;3.35;;;4.30;99.90;;;;;;6238664;23;20016;-82
2024/01/12 09:29:43;;;;;;;8.30;2.15;;;4.30;99.90;;;;;;6237760;23;20015;-82
2024/01/12 09:32:09;;;;;;;9.82;2.08;;;4.40;99.90;;;;;;6237033;23;20015;-80
2024/01/12 09:34:34;;;;;;;9.15;2.03;;;4.40;99.90;;;;;;6237712;23;20380;-80
2024/01/12 09:37:00;;;;;;;16.17;2.20;;;4.40;99.90;;;;;;6214099;23;20008;-81
2024/01/12 09:39:26;;;;;;;10.05;2.13;;;4.50;99.90;;;;;;6213871;23;21011;-81
2024/01/12 09:41:58;;;;;;;16.55;2.80;;;4.50;99.90;;;;;;6238774;23;20341;-81
2024/01/12 09:44:27;;;;;;;14.13;2.47;;;4.50;99.90;;;;;;6239604;23;20016;-80
2024/01/12 09:46:57;;;;;;;16.83;2.50;;;4.50;99.90;;;;;;6240467;23;20008;-81
2024/01/12 09:49:24;;;;;;;15.85;2.78;;;4.50;99.90;;;;;;6239329;23;20016;-80
2024/01/12 09:51:50;;;;;;;13.52;2.13;;;4.50;99.90;;;;;;6238709;23;20026;-81
2024/01/12 09:54:18;;;;;;;10.35;1.90;;;4.60;99.90;;;;;;6239587;23;20044;-81
2024/01/12 09:56:46;;;;;;;11.85;1.73;;;4.60;99.90;;;;;;6240846;23;20078;-81
2024/01/12 09:59:12;;;;;;;10.05;2.05;;;4.60;99.90;;;;;;6240831;23;20011;-81
2024/01/12 10:01:40;;;;;;;12.73;2.60;;;4.50;99.90;;;;;;6241415;23;20022;-80
2024/01/12 10:04:06;;;;;;;15.07;5.55;;;4.60;99.90;;;;;;6238779;23;20020;-80
2024/01/12 10:06:32;;;;;;;12.60;3.67;;;4.60;99.90;;;;;;6213449;23;20020;-80
2024/01/12 10:08:58;;;;;;;15.70;5.72;;;4.60;99.90;;;;;;6239432;23;20012;-80
2024/01/12 10:11:24;;;;;;;19.60;5.43;;;4.60;99.90;;;;;;6238545;23;20024;-81
2024/01/12 10:13:50;;;;;;;17.65;3.67;;;4.60;99.90;;;;;;6240612;22;20012;-81
2024/01/12 10:16:20;;;;;;;16.85;2.97;;;4.70;99.90;;;;;;6240662;23;20096;-80
2024/01/12 10:18:46;;;;;;;13.32;2.78;;;4.70;99.90;;;;;;6241198;23;20008;-80
2024/01/12 10:21:14;;;;;;;9.68;2.13;;;4.80;99.90;;;;;;6239666;23;20012;-80
2024/01/12 10:23:40;;;;;;;12.15;2.00;;;4.80;99.90;;;;;;6241446;23;20078;-81
2024/01/12 10:26:08;;;;;;;12.85;2.22;;;4.80;99.90;;;;;;6239924;23;20051;-81
2024/01/12 10:28:33;;;;;;;9.90;2.38;;;4.80;99.90;;;;;;6237785;23;20408;-81
2024/01/12 10:31:04;;;;;;;6.47;1.80;;;4.80;99.90;;;;;;6236190;23;20020;-80
2024/01/12 10:33:30;;;;;;;12.05;2.55;;;4.90;99.90;;;;;;6237996;23;20084;-80
2024/01/12 10:36:20;;;;;;;12.63;2.37;;;4.80;99.90;;;;;;6238636;23;20181;-81
2024/01/12 10:38:48;;;;;;;14.45;2.55;;;4.80;99.90;;;;;;6241556;23;20016;-80
2024/01/12 10:41:15;;;;;;;11.75;2.38;;;4.90;99.90;;;;;;6239959;23;20073;-80
2024/01/12 10:43:44;;;;;;;10.65;2.35;;;4.90;99.90;;;;;;6241153;23;20016;-80
2024/01/12 10:46:22;;;;;;;14.93;3.13;;;4.90;99.90;;;;;;6239578;23;20042;-79
2024/01/12 10:49:17;;;;;;;14.77;2.78;;;4.90;99.90;;;;;;6236898;23;20026;-79
2024/01/12 10:52:04;;;;;;;13.77;2.55;;;5.00;99.90;;;;;;6239359;23;20027;-80
2024/01/12 10:54:43;;;;;;;14.45;3.22;;;5.00;99.90;;;;;;6237841;23;20027;-79
2024/01/12 10:57:11;;;;;;;11.15;2.58;;;5.00;99.90;;;;;;6239755;23;20052;-79
2024/01/12 10:59:37;;;;;;;14.80;2.60;;;5.00;99.90;;;;;;6239450;23;20078;-83
2024/01/12 11:02:03;;;;;;;11.77;2.55;;;5.00;99.90;;;;;;6238248;23;20083;-79
2024/01/12 11:04:30;;;;;;;16.42;3.30;;;5.00;99.90;;;;;;6238770;23;20077;-79
2024/01/12 11:06:59;;;;;;;13.75;2.78;;;5.10;99.90;;;;;;6212925;23;20016;-79
2024/01/12 11:09:25;;;;;;;10.40;2.30;;;5.10;99.90;;;;;;6213355;23;20024;-79
2024/01/12 11:12:14;;;;;;;9.32;1.98;;;5.10;99.90;;;;;;6213129;23;20467;-80
2024/01/12 11:14:41;;;;;;;8.88;1.95;;;5.10;99.90;;;;;;6238198;23;20027;-79
2024/01/12 11:17:07;;;;;;;10.07;2.33;;;5.10;99.90;;;;;;6237337;23;20012;-79
2024/01/12 11:19:33;;;;;;;17.30;3.33;;;5.10;99.90;;;;;;6212186;23;20016;-80
2024/01/12 11:22:18;;;;;;;12.82;2.80;;;5.10;99.90;;;;;;6237055;23;20024;-80
2024/01/12 11:24:44;;;;;;;12.77;2.67;;;5.10;99.90;;;;;;6237211;23;20403;-80
2024/01/12 11:27:14;;;;;;;16.35;2.95;;;5.10;99.90;;;;;;6234945;23;20024;-80
2024/01/12 11:29:42;;;;;;;16.63;3.30;;;5.10;99.90;;;;;;6237431;23;20047;-79
2024/01/12 11:32:14;;;;;;;14.07;2.47;;;5.10;99.90;;;;;;6211779;23;20012;-80
2024/01/12 11:34:40;;;;;;;8.05;2.08;;;5.10;99.90;;;;;;6239982;22;20022;-80
2024/01/12 11:37:08;;;;;;;10.33;2.33;;;5.10;99.90;;;;;;6240126;23;20083;-80
2024/01/12 11:39:37;;;;;;;17.48;2.65;;;5.10;99.90;;;;;;6234942;23;20488;-79
2024/01/12 11:42:05;;;;;;;10.98;2.65;;;5.10;99.90;;;;;;6236729;23;20012;-80
2024/01/12 11:44:33;;;;;;;13.15;3.13;;;5.10;99.90;;;;;;6240191;23;20015;-80
2024/01/12 11:47:00;;;;;;;15.18;2.42;;;5.20;99.90;;;;;;6237766;23;20158;-81
2024/01/12 11:49:25;;;;;;;10.82;2.35;;;5.20;99.90;;;;;;6212607;23;20511;-81
2024/01/12 11:52:01;;;;;;;13.98;2.95;;;5.20;99.90;;;;;;6212930;23;20020;-81
2024/01/12 11:54:27;;;;;;;10.88;2.78;;;5.20;99.90;;;;;;6213352;23;20020;-82
2024/01/12 11:56:54;;;;;;;20.42;3.33;;;5.20;99.90;;;;;;6212475;23;20020;-81
2024/01/12 11:59:29;;;;;;;14.23;2.88;;;5.20;99.90;;;;;;6212557;23;20019;-81
2024/01/12 12:01:55;;;;;;;17.17;3.08;;;5.30;99.90;;;;;;6210823;23;20020;-80
2024/01/12 12:04:21;;;;;;;19.90;4.43;;;5.20;99.90;;;;;;6237208;23;20087;-80
2024/01/12 12:06:47;;;;;;;23.75;8.18;;;5.30;99.90;;;;;;6237390;23;20019;-80
2024/01/12 12:09:13;;;;;;;42.17;13.95;;;5.30;99.90;;;;;;6236781;23;20083;-80
2024/01/12 12:11:39;;;;;;;34.03;14.43;;;5.30;99.90;;;;;;6234557;23;20458;-77
2024/01/12 12:14:05;;;;;;;46.55;24.60;;;5.30;99.90;;;;;;6210119;23;20402;-79
2024/01/12 12:16:31;;;;;;;27.13;9.90;;;5.30;99.90;;;;;;6236867;23;20012;-79
2024/01/12 12:18:56;;;;;;;17.95;5.70;;;5.30;99.90;;;;;;6236726;23;20089;-79
2024/01/12 12:21:22;;;;;;;23.77;4.95;;;5.30;99.90;;;;;;6236043;23;20699;-79
2024/01/12 12:23:48;;;;;;;18.60;3.40;;;5.30;99.90;;;;;;6210232;23;20016;-78
2024/01/12 12:26:14;;;;;;;17.52;4.20;;;5.40;99.90;;;;;;6210376;23;20016;-78
2024/01/12 12:28:40;;;;;;;19.88;5.93;;;5.40;99.90;;;;;;6236672;23;20065;-78
2024/01/12 12:31:10;;;;;;;18.45;3.50;;;5.40;99.90;;;;;;6236302;23;20019;-78
2024/01/12 12:33:36;;;;;;;21.52;4.18;;;5.40;99.90;;;;;;6211681;23;20235;-77
2024/01/12 12:36:09;;;;;;;22.13;3.67;;;5.40;99.90;;;;;;6236899;23;20294;-78
2024/01/12 12:38:39;;;;;;;15.52;3.65;;;5.30;99.90;;;;;;6236781;23;20510;-78
2024/01/12 12:41:08;;;;;;;22.73;3.22;;;5.30;99.90;;;;;;6236062;23;20020;-78
2024/01/12 12:43:35;;;;;;;15.15;2.47;;;5.20;99.90;;;;;;6212099;23;20016;-78
2024/01/12 12:46:02;;;;;;;17.40;2.72;;;5.20;99.90;;;;;;6238275;23;20058;-78
2024/01/12 12:48:27;;;;;;;16.95;2.25;;;5.20;99.90;;;;;;6237021;23;20019;-78